Delavan, WI

9:12 PM CDT on August 30, 2016 (GMT -0500)
Wisconsin Farm | | Change Station

Elev 948 ft 42.61 °N, 88.66 °W | Updated 1 minute ago

Mist
Mist
69.3 °F
Feels Like 69.3 °F
N
2.7
Wind Variable Wind from West

Today
High -- | Low -- °F
--% Chance of Precip.
Yesterday
High -- | Low -- °F
Precip. -- in
Pressure 30.06 in
Visibility 1.0 miles
Clouds
Dew Point 68 °F
Humidity 94%
Rainfall 0.10 in
Snow Depth Not available.
6:17 AM 7:31 PM
Waning Crescent, 2% visible
METAR KBUU 310155Z AUTO 00000KT 1SM BR VV007 19/19 A3006 RMK AO2 T01890187
Pressure 30.06 in
Visibility 1.0 miles
Clouds
Dew Point 68 °F
Humidity 94%
Rainfall 0.10 in
Snow Depth Not available.
6:17 AM 7:31 PM
Waning Crescent, 2% visible
METAR KBUU 310155Z AUTO 00000KT 1SM BR VV007 19/19 A3006 RMK AO2 T01890187

10-Day Weather Forecast

Almanac

Astronomy

Aug. 30, 2016 Rise Set
Actual Time
Civil Twilight
Nautical Twilight
Astronomical Twilight
Moon
Length of Visible Light
Length of Day
Tomorrow will be .
, % of the Moon is Illuminated

Today's Extremes

State Highs State Lows

Community

WunderPhotos

Upload Photos

1,935,993 photos uploaded!

WunderBlog® & News

Nearby

Air Quality

  Air Quality AQ Index Pollutant
Not available.

Snow Depth

Station Depth Elevation

Earthquake Activity

City Distance Mag. Time & Date
Minimum magnitude displayed is 2.5.

Coastal Water Temperatures

Place Temperature

Stations

Nearby Weather Stations

Station Location Temp. Windchill Dew Point Humidity Wind Precip. Elev Updated Type
                   

Watches & Warnings

There are currently no watches in effect.